sensor_id;sensor_type;location;lat;lon;timestamp;temperature;humidity
15969;DHT22;8085;53.472;9.794;2023-02-11T00:02:19;5.70;99.90
15969;DHT22;8085;53.472;9.794;2023-02-11T00:04:47;5.60;99.90
15969;DHT22;8085;53.472;9.794;2023-02-11T00:07:14;5.70;99.90
15969;DHT22;8085;53.472;9.794;2023-02-11T00:09:40;5.60;99.90
15969;DHT22;8085;53.472;9.794;2023-02-11T00:12:07;5.70;99.90
15969;DHT22;8085;53.472;9.794;2023-02-11T00:14:34;5.70;99.90
15969;DHT22;8085;53.472;9.794;2023-02-11T00:17:01;5.70;99.90
15969;DHT22;8085;53.472;9.794;2023-02-11T00:19:28;5.70;99.90
15969;DHT22;8085;53.472;9.794;2023-02-11T00:21:56;5.70;99.90
15969;DHT22;8085;53.472;9.794;2023-02-11T00:24:22;5.70;99.90
15969;DHT22;8085;53.472;9.794;2023-02-11T00:26:49;5.80;99.90
15969;DHT22;8085;53.472;9.794;2023-02-11T00:29:16;5.70;99.90
15969;DHT22;8085;53.472;9.794;2023-02-11T00:31:43;5.80;99.90
15969;DHT22;8085;53.472;9.794;2023-02-11T00:34:10;5.70;99.90
15969;DHT22;8085;53.472;9.794;2023-02-11T00:36:36;5.70;99.90
15969;DHT22;8085;53.472;9.794;2023-02-11T00:39:06;5.70;99.90
15969;DHT22;8085;53.472;9.794;2023-02-11T00:41:33;5.70;99.90
15969;DHT22;8085;53.472;9.794;2023-02-11T00:44:00;5.70;99.90
15969;DHT22;8085;53.472;9.794;2023-02-11T00:46:27;5.70;99.90
15969;DHT22;8085;53.472;9.794;2023-02-11T00:48:54;5.70;99.90
15969;DHT22;8085;53.472;9.794;2023-02-11T00:51:22;5.70;99.90
15969;DHT22;8085;53.472;9.794;2023-02-11T00:53:49;5.70;99.90
15969;DHT22;8085;53.472;9.794;2023-02-11T00:56:17;5.70;99.90
15969;DHT22;8085;53.472;9.794;2023-02-11T00:58:44;5.70;99.90
15969;DHT22;8085;53.472;9.794;2023-02-11T01:01:11;5.70;99.90
15969;DHT22;8085;53.472;9.794;2023-02-11T01:03:38;5.60;99.90
15969;DHT22;8085;53.472;9.794;2023-02-11T01:06:07;5.60;99.90
15969;DHT22;8085;53.472;9.794;2023-02-11T01:08:34;5.60;99.90
15969;DHT22;8085;53.472;9.794;2023-02-11T01:11:04;5.70;99.90
15969;DHT22;8085;53.472;9.794;2023-02-11T01:13:34;5.70;99.90
15969;DHT22;8085;53.472;9.794;2023-02-11T01:16:02;5.70;99.90
15969;DHT22;8085;53.472;9.794;2023-02-11T01:18:29;5.70;99.90
15969;DHT22;8085;53.472;9.794;2023-02-11T01:20:56;5.70;99.90
15969;DHT22;8085;53.472;9.794;2023-02-11T01:23:23;5.70;99.90
15969;DHT22;8085;53.472;9.794;2023-02-11T01:25:50;5.70;99.90
15969;DHT22;8085;53.472;9.794;2023-02-11T01:28:18;5.70;99.90
15969;DHT22;8085;53.472;9.794;2023-02-11T01:30:46;5.70;99.90
15969;DHT22;8085;53.472;9.794;2023-02-11T01:33:13;5.70;99.90
15969;DHT22;8085;53.472;9.794;2023-02-11T01:35:40;5.70;99.90
15969;DHT22;8085;53.472;9.794;2023-02-11T01:38:13;5.70;99.90
15969;DHT22;8085;53.472;9.794;2023-02-11T01:40:46;5.70;99.90
15969;DHT22;8085;53.472;9.794;2023-02-11T01:43:12;5.70;99.90
15969;DHT22;8085;53.472;9.794;2023-02-11T01:46:13;5.60;99.90
15969;DHT22;8085;53.472;9.794;2023-02-11T01:48:44;5.70;99.90
15969;DHT22;8085;53.472;9.794;2023-02-11T01:51:15;5.70;99.90
15969;DHT22;8085;53.472;9.794;2023-02-11T01:53:45;5.70;99.90
15969;DHT22;8085;53.472;9.794;2023-02-11T01:56:31;5.70;99.90
15969;DHT22;8085;53.472;9.794;2023-02-11T01:59:34;5.70;99.90
15969;DHT22;8085;53.472;9.794;2023-02-11T02:02:08;5.80;99.90
15969;DHT22;8085;53.472;9.794;2023-02-11T02:04:42;5.80;99.90
15969;DHT22;8085;53.472;9.794;2023-02-11T02:07:13;5.80;99.90
15969;DHT22;8085;53.472;9.794;2023-02-11T02:09:47;5.80;99.90
15969;DHT22;8085;53.472;9.794;2023-02-11T02:12:14;5.90;99.90
15969;DHT22;8085;53.472;9.794;2023-02-11T02:14:41;5.80;99.90
15969;DHT22;8085;53.472;9.794;2023-02-11T02:17:19;5.90;99.90
15969;DHT22;8085;53.472;9.794;2023-02-11T02:20:12;5.90;99.90
15969;DHT22;8085;53.472;9.794;2023-02-11T02:23:06;5.90;99.90
15969;DHT22;8085;53.472;9.794;2023-02-11T02:29:00;5.90;99.90
15969;DHT22;8085;53.472;9.794;2023-02-11T02:31:47;6.00;99.90
15969;DHT22;8085;53.472;9.794;2023-02-11T02:34:23;6.00;99.90
15969;DHT22;8085;53.472;9.794;2023-02-11T02:37:00;6.00;99.90
15969;DHT22;8085;53.472;9.794;2023-02-11T02:39:32;6.00;99.90
15969;DHT22;8085;53.472;9.794;2023-02-11T02:42:01;6.00;99.90
15969;DHT22;8085;53.472;9.794;2023-02-11T02:44:29;6.00;99.90
15969;DHT22;8085;53.472;9.794;2023-02-11T02:46:56;5.90;99.90
15969;DHT22;8085;53.472;9.794;2023-02-11T02:49:24;6.00;99.90
15969;DHT22;8085;53.472;9.794;2023-02-11T02:52:02;6.00;99.90
15969;DHT22;8085;53.472;9.794;2023-02-11T02:54:57;6.00;99.90
15969;DHT22;8085;53.472;9.794;2023-02-11T02:57:31;6.00;99.90
15969;DHT22;8085;53.472;9.794;2023-02-11T03:00:07;6.00;99.90
15969;DHT22;8085;53.472;9.794;2023-02-11T03:02:40;6.00;99.90
15969;DHT22;8085;53.472;9.794;2023-02-11T03:05:16;6.00;99.90
15969;DHT22;8085;53.472;9.794;2023-02-11T03:07:49;6.00;99.90
15969;DHT22;8085;53.472;9.794;2023-02-11T03:10:21;6.00;99.90
15969;DHT22;8085;53.472;9.794;2023-02-11T03:12:51;6.10;99.90
15969;DHT22;8085;53.472;9.794;2023-02-11T03:15:20;6.10;99.90
15969;DHT22;8085;53.472;9.794;2023-02-11T03:17:51;6.20;99.90
15969;DHT22;8085;53.472;9.794;2023-02-11T03:20:21;6.30;99.90
15969;DHT22;8085;53.472;9.794;2023-02-11T03:22:52;6.20;99.90
15969;DHT22;8085;53.472;9.794;2023-02-11T03:25:21;6.20;99.90
15969;DHT22;8085;53.472;9.794;2023-02-11T03:27:56;6.30;99.90
15969;DHT22;8085;53.472;9.794;2023-02-11T03:30:27;6.30;99.90
15969;DHT22;8085;53.472;9.794;2023-02-11T03:32:59;6.30;99.90
15969;DHT22;8085;53.472;9.794;2023-02-11T03:35:31;6.40;99.90
15969;DHT22;8085;53.472;9.794;2023-02-11T03:38:03;6.50;99.90
15969;DHT22;8085;53.472;9.794;2023-02-11T03:40:36;6.40;99.90
15969;DHT22;8085;53.472;9.794;2023-02-11T03:43:09;6.50;99.90
15969;DHT22;8085;53.472;9.794;2023-02-11T03:45:37;6.50;99.90
15969;DHT22;8085;53.472;9.794;2023-02-11T03:48:10;6.50;99.90
15969;DHT22;8085;53.472;9.794;2023-02-11T03:50:40;6.60;99.90
15969;DHT22;8085;53.472;9.794;2023-02-11T03:53:08;6.60;99.90
15969;DHT22;8085;53.472;9.794;2023-02-11T03:55:38;6.70;99.90
15969;DHT22;8085;53.472;9.794;2023-02-11T03:58:05;6.70;99.90
15969;DHT22;8085;53.472;9.794;2023-02-11T04:00:34;6.60;99.90
15969;DHT22;8085;53.472;9.794;2023-02-11T04:03:01;6.70;99.90
15969;DHT22;8085;53.472;9.794;2023-02-11T04:05:28;6.70;99.90
15969;DHT22;8085;53.472;9.794;2023-02-11T04:07:57;6.70;99.90
15969;DHT22;8085;53.472;9.794;2023-02-11T04:10:24;6.70;99.90
15969;DHT22;8085;53.472;9.794;2023-02-11T04:12:51;6.80;99.90
15969;DHT22;8085;53.472;9.794;2023-02-11T04:15:18;6.80;99.90
15969;DHT22;8085;53.472;9.794;2023-02-11T04:17:45;6.80;99.90
15969;DHT22;8085;53.472;9.794;2023-02-11T04:20:12;6.80;99.90
15969;DHT22;8085;53.472;9.794;2023-02-11T04:22:39;6.80;99.90
15969;DHT22;8085;53.472;9.794;2023-02-11T04:25:08;6.80;99.90
15969;DHT22;8085;53.472;9.794;2023-02-11T04:27:35;6.80;99.90
15969;DHT22;8085;53.472;9.794;2023-02-11T04:30:03;6.80;99.90
15969;DHT22;8085;53.472;9.794;2023-02-11T04:32:30;6.80;99.90
15969;DHT22;8085;53.472;9.794;2023-02-11T04:34:56;6.80;99.90
15969;DHT22;8085;53.472;9.794;2023-02-11T04:37:23;6.80;99.90
15969;DHT22;8085;53.472;9.794;2023-02-11T04:39:50;6.90;99.90
15969;DHT22;8085;53.472;9.794;2023-02-11T04:42:18;6.80;99.90
15969;DHT22;8085;53.472;9.794;2023-02-11T04:44:45;6.80;99.90
15969;DHT22;8085;53.472;9.794;2023-02-11T04:47:12;6.80;99.90
15969;DHT22;8085;53.472;9.794;2023-02-11T04:49:40;6.80;99.90
15969;DHT22;8085;53.472;9.794;2023-02-11T04:52:07;6.90;99.90
15969;DHT22;8085;53.472;9.794;2023-02-11T04:54:34;6.80;99.90
15969;DHT22;8085;53.472;9.794;2023-02-11T04:57:01;6.80;99.90
15969;DHT22;8085;53.472;9.794;2023-02-11T04:59:29;6.80;99.90
15969;DHT22;8085;53.472;9.794;2023-02-11T05:01:56;6.80;99.90
15969;DHT22;8085;53.472;9.794;2023-02-11T05:04:23;6.90;99.90
15969;DHT22;8085;53.472;9.794;2023-02-11T05:06:50;6.90;99.90
15969;DHT22;8085;53.472;9.794;2023-02-11T05:09:17;6.90;99.90
15969;DHT22;8085;53.472;9.794;2023-02-11T05:11:44;6.90;99.90
15969;DHT22;8085;53.472;9.794;2023-02-11T05:14:10;6.90;99.90
15969;DHT22;8085;53.472;9.794;2023-02-11T05:16:39;6.90;99.90
15969;DHT22;8085;53.472;9.794;2023-02-11T05:19:05;6.90;99.90
15969;DHT22;8085;53.472;9.794;2023-02-11T05:21:32;6.90;99.90
15969;DHT22;8085;53.472;9.794;2023-02-11T05:23:59;6.90;99.90
15969;DHT22;8085;53.472;9.794;2023-02-11T05:26:26;6.90;99.90
15969;DHT22;8085;53.472;9.794;2023-02-11T05:28:53;6.80;99.90
15969;DHT22;8085;53.472;9.794;2023-02-11T05:31:19;6.80;99.90
15969;DHT22;8085;53.472;9.794;2023-02-11T05:33:48;6.80;99.90
15969;DHT22;8085;53.472;9.794;2023-02-11T05:36:14;6.70;99.90
15969;DHT22;8085;53.472;9.794;2023-02-11T05:38:41;6.70;99.90
15969;DHT22;8085;53.472;9.794;2023-02-11T05:41:09;6.70;99.90
15969;DHT22;8085;53.472;9.794;2023-02-11T05:43:36;6.70;99.90
15969;DHT22;8085;53.472;9.794;2023-02-11T05:46:04;6.60;99.90
15969;DHT22;8085;53.472;9.794;2023-02-11T05:48:31;6.70;99.90
15969;DHT22;8085;53.472;9.794;2023-02-11T05:51:00;6.70;99.90
15969;DHT22;8085;53.472;9.794;2023-02-11T05:53:27;6.60;99.90
15969;DHT22;8085;53.472;9.794;2023-02-11T05:55:53;6.60;99.90
15969;DHT22;8085;53.472;9.794;2023-02-11T05:58:20;6.60;99.90
15969;DHT22;8085;53.472;9.794;2023-02-11T06:00:47;6.60;99.90
15969;DHT22;8085;53.472;9.794;2023-02-11T06:03:14;6.60;99.90
15969;DHT22;8085;53.472;9.794;2023-02-11T06:05:41;6.60;99.90
15969;DHT22;8085;53.472;9.794;2023-02-11T06:08:09;6.60;99.90
15969;DHT22;8085;53.472;9.794;2023-02-11T06:10:36;6.70;99.90
15969;DHT22;8085;53.472;9.794;2023-02-11T06:13:03;6.70;99.90
15969;DHT22;8085;53.472;9.794;2023-02-11T06:15:30;6.70;99.90
15969;DHT22;8085;53.472;9.794;2023-02-11T06:17:57;6.70;99.90
15969;DHT22;8085;53.472;9.794;2023-02-11T06:20:24;6.70;99.90
15969;DHT22;8085;53.472;9.794;2023-02-11T06:22:50;6.70;99.90
15969;DHT22;8085;53.472;9.794;2023-02-11T06:25:19;6.80;99.90
15969;DHT22;8085;53.472;9.794;2023-02-11T06:27:46;6.70;99.90
15969;DHT22;8085;53.472;9.794;2023-02-11T06:30:13;6.70;99.90
15969;DHT22;8085;53.472;9.794;2023-02-11T06:32:40;6.80;99.90
15969;DHT22;8085;53.472;9.794;2023-02-11T06:35:07;6.70;99.90
15969;DHT22;8085;53.472;9.794;2023-02-11T06:37:34;6.70;99.90
15969;DHT22;8085;53.472;9.794;2023-02-11T06:40:01;6.80;99.90
15969;DHT22;8085;53.472;9.794;2023-02-11T06:42:29;6.90;99.90
15969;DHT22;8085;53.472;9.794;2023-02-11T06:44:56;6.90;99.90
15969;DHT22;8085;53.472;9.794;2023-02-11T06:47:22;6.90;99.90
15969;DHT22;8085;53.472;9.794;2023-02-11T06:49:49;7.00;99.90
15969;DHT22;8085;53.472;9.794;2023-02-11T06:52:16;7.00;99.90
15969;DHT22;8085;53.472;9.794;2023-02-11T06:54:43;6.90;99.90
15969;DHT22;8085;53.472;9.794;2023-02-11T06:57:09;7.00;99.90
15969;DHT22;8085;53.472;9.794;2023-02-11T06:59:38;7.00;99.90
15969;DHT22;8085;53.472;9.794;2023-02-11T07:02:04;7.00;99.90
15969;DHT22;8085;53.472;9.794;2023-02-11T07:04:31;6.90;99.90
15969;DHT22;8085;53.472;9.794;2023-02-11T07:06:58;6.90;99.90
15969;DHT22;8085;53.472;9.794;2023-02-11T07:09:25;6.90;99.90
15969;DHT22;8085;53.472;9.794;2023-02-11T07:11:52;6.90;99.90
15969;DHT22;8085;53.472;9.794;2023-02-11T07:14:18;7.00;99.90
15969;DHT22;8085;53.472;9.794;2023-02-11T07:16:47;7.00;99.90
15969;DHT22;8085;53.472;9.794;2023-02-11T07:19:13;6.90;99.90
15969;DHT22;8085;53.472;9.794;2023-02-11T07:21:40;6.90;99.90
15969;DHT22;8085;53.472;9.794;2023-02-11T07:24:08;6.90;99.90
15969;DHT22;8085;53.472;9.794;2023-02-11T07:26:35;7.00;99.90
15969;DHT22;8085;53.472;9.794;2023-02-11T07:29:02;7.00;99.90
15969;DHT22;8085;53.472;9.794;2023-02-11T07:31:29;7.00;99.90
15969;DHT22;8085;53.472;9.794;2023-02-11T07:33:59;7.00;99.90
15969;DHT22;8085;53.472;9.794;2023-02-11T07:36:27;7.00;99.90
15969;DHT22;8085;53.472;9.794;2023-02-11T07:38:56;7.00;99.90
15969;DHT22;8085;53.472;9.794;2023-02-11T07:41:23;7.00;99.90
15969;DHT22;8085;53.472;9.794;2023-02-11T07:43:50;7.00;99.90
15969;DHT22;8085;53.472;9.794;2023-02-11T07:46:19;7.10;99.90
15969;DHT22;8085;53.472;9.794;2023-02-11T07:48:46;7.00;99.90
15969;DHT22;8085;53.472;9.794;2023-02-11T07:51:16;7.00;99.90
15969;DHT22;8085;53.472;9.794;2023-02-11T07:53:45;7.00;99.90
15969;DHT22;8085;53.472;9.794;2023-02-11T07:56:14;7.00;99.90
15969;DHT22;8085;53.472;9.794;2023-02-11T07:58:41;7.10;99.90
15969;DHT22;8085;53.472;9.794;2023-02-11T08:01:10;7.10;99.90
15969;DHT22;8085;53.472;9.794;2023-02-11T08:03:38;7.10;99.90
15969;DHT22;8085;53.472;9.794;2023-02-11T08:06:08;7.10;99.90
15969;DHT22;8085;53.472;9.794;2023-02-11T08:08:37;7.10;99.90
15969;DHT22;8085;53.472;9.794;2023-02-11T08:11:07;7.10;99.90
15969;DHT22;8085;53.472;9.794;2023-02-11T08:13:35;7.20;99.90
15969;DHT22;8085;53.472;9.794;2023-02-11T08:16:02;7.20;99.90
15969;DHT22;8085;53.472;9.794;2023-02-11T08:18:29;7.20;99.90
15969;DHT22;8085;53.472;9.794;2023-02-11T08:20:58;7.20;99.90
15969;DHT22;8085;53.472;9.794;2023-02-11T08:23:28;7.30;99.90
15969;DHT22;8085;53.472;9.794;2023-02-11T08:26:00;7.40;99.90
15969;DHT22;8085;53.472;9.794;2023-02-11T08:28:27;7.30;99.90
15969;DHT22;8085;53.472;9.794;2023-02-11T08:30:53;7.30;99.90
15969;DHT22;8085;53.472;9.794;2023-02-11T08:33:20;7.30;99.90
15969;DHT22;8085;53.472;9.794;2023-02-11T08:35:47;7.30;99.90
15969;DHT22;8085;53.472;9.794;2023-02-11T08:38:14;7.30;99.90
15969;DHT22;8085;53.472;9.794;2023-02-11T08:40:41;7.30;99.90
15969;DHT22;8085;53.472;9.794;2023-02-11T08:43:09;7.30;99.90
15969;DHT22;8085;53.472;9.794;2023-02-11T08:45:36;7.40;99.90
15969;DHT22;8085;53.472;9.794;2023-02-11T08:48:03;7.40;99.90
15969;DHT22;8085;53.472;9.794;2023-02-11T08:50:30;7.40;99.90
15969;DHT22;8085;53.472;9.794;2023-02-11T08:52:57;7.40;99.90
15969;DHT22;8085;53.472;9.794;2023-02-11T08:55:23;7.40;99.90
15969;DHT22;8085;53.472;9.794;2023-02-11T08:57:50;7.40;99.90
15969;DHT22;8085;53.472;9.794;2023-02-11T09:00:19;7.40;99.90
15969;DHT22;8085;53.472;9.794;2023-02-11T09:02:46;7.50;99.90
15969;DHT22;8085;53.472;9.794;2023-02-11T09:05:13;7.40;99.90
15969;DHT22;8085;53.472;9.794;2023-02-11T09:07:39;7.50;99.90
15969;DHT22;8085;53.472;9.794;2023-02-11T09:10:07;7.50;99.90
15969;DHT22;8085;53.472;9.794;2023-02-11T09:12:34;7.50;99.90
15969;DHT22;8085;53.472;9.794;2023-02-11T09:15:00;7.50;99.90
15969;DHT22;8085;53.472;9.794;2023-02-11T09:17:29;7.50;99.90
15969;DHT22;8085;53.472;9.794;2023-02-11T09:19:55;7.50;99.90
15969;DHT22;8085;53.472;9.794;2023-02-11T09:22:22;7.50;99.90
15969;DHT22;8085;53.472;9.794;2023-02-11T09:24:49;7.50;99.90
15969;DHT22;8085;53.472;9.794;2023-02-11T09:27:16;7.50;99.90
15969;DHT22;8085;53.472;9.794;2023-02-11T09:29:43;7.50;99.90
15969;DHT22;8085;53.472;9.794;2023-02-11T09:32:09;7.50;99.90
15969;DHT22;8085;53.472;9.794;2023-02-11T09:34:37;7.50;99.90
15969;DHT22;8085;53.472;9.794;2023-02-11T09:37:04;7.50;99.90
15969;DHT22;8085;53.472;9.794;2023-02-11T09:39:31;7.50;99.90
15969;DHT22;8085;53.472;9.794;2023-02-11T09:42:09;7.50;99.90
15969;DHT22;8085;53.472;9.794;2023-02-11T09:44:39;7.50;99.90
15969;DHT22;8085;53.472;9.794;2023-02-11T09:47:22;7.40;99.90
15969;DHT22;8085;53.472;9.794;2023-02-11T09:49:53;7.50;99.90
15969;DHT22;8085;53.472;9.794;2023-02-11T09:52:29;7.50;99.90
15969;DHT22;8085;53.472;9.794;2023-02-11T09:54:57;7.50;99.90
15969;DHT22;8085;53.472;9.794;2023-02-11T09:57:30;7.50;99.90
15969;DHT22;8085;53.472;9.794;2023-02-11T09:59:58;7.50;99.90
15969;DHT22;8085;53.472;9.794;2023-02-11T10:02:31;7.50;99.90
15969;DHT22;8085;53.472;9.794;2023-02-11T10:05:24;7.50;99.90
15969;DHT22;8085;53.472;9.794;2023-02-11T10:07:59;7.60;99.90
15969;DHT22;8085;53.472;9.794;2023-02-11T10:10:37;7.60;99.90
15969;DHT22;8085;53.472;9.794;2023-02-11T10:13:24;7.60;99.90
15969;DHT22;8085;53.472;9.794;2023-02-11T10:15:59;7.60;99.90
15969;DHT22;8085;53.472;9.794;2023-02-11T10:18:44;7.60;99.90
15969;DHT22;8085;53.472;9.794;2023-02-11T10:21:20;7.60;99.90
15969;DHT22;8085;53.472;9.794;2023-02-11T10:23:53;7.60;99.90
15969;DHT22;8085;53.472;9.794;2023-02-11T10:26:20;7.60;99.90
15969;DHT22;8085;53.472;9.794;2023-02-11T10:28:51;7.60;99.90
15969;DHT22;8085;53.472;9.794;2023-02-11T10:31:21;7.70;99.90
15969;DHT22;8085;53.472;9.794;2023-02-11T10:33:55;7.70;99.90
15969;DHT22;8085;53.472;9.794;2023-02-11T10:36:28;7.70;99.90
15969;DHT22;8085;53.472;9.794;2023-02-11T10:38:57;7.70;99.90
15969;DHT22;8085;53.472;9.794;2023-02-11T10:41:28;7.80;99.90
15969;DHT22;8085;53.472;9.794;2023-02-11T10:43:58;7.80;99.90
15969;DHT22;8085;53.472;9.794;2023-02-11T10:46:30;7.80;99.90
15969;DHT22;8085;53.472;9.794;2023-02-11T10:48:57;7.80;99.90
15969;DHT22;8085;53.472;9.794;2023-02-11T10:51:26;7.80;99.90
15969;DHT22;8085;53.472;9.794;2023-02-11T10:54:10;7.80;99.90
15969;DHT22;8085;53.472;9.794;2023-02-11T10:56:41;7.70;99.90
15969;DHT22;8085;53.472;9.794;2023-02-11T10:59:16;7.70;99.90
15969;DHT22;8085;53.472;9.794;2023-02-11T11:01:49;7.60;99.90
15969;DHT22;8085;53.472;9.794;2023-02-11T11:04:38;7.60;99.90
15969;DHT22;8085;53.472;9.794;2023-02-11T11:07:15;7.60;99.90
15969;DHT22;8085;53.472;9.794;2023-02-11T11:09:48;7.60;99.90
15969;DHT22;8085;53.472;9.794;2023-02-11T11:12:31;7.60;99.90
15969;DHT22;8085;53.472;9.794;2023-02-11T11:15:01;7.70;99.90
15969;DHT22;8085;53.472;9.794;2023-02-11T11:17:29;7.70;99.90
15969;DHT22;8085;53.472;9.794;2023-02-11T11:23:10;7.70;99.90
15969;DHT22;8085;53.472;9.794;2023-02-11T11:25:43;7.70;99.90
15969;DHT22;8085;53.472;9.794;2023-02-11T11:28:20;7.70;99.90
15969;DHT22;8085;53.472;9.794;2023-02-11T11:30:48;7.70;99.90
15969;DHT22;8085;53.472;9.794;2023-02-11T11:33:20;7.70;99.90
15969;DHT22;8085;53.472;9.794;2023-02-11T11:36:02;7.70;99.90
15969;DHT22;8085;53.472;9.794;2023-02-11T11:38:32;7.80;99.90
15969;DHT22;8085;53.472;9.794;2023-02-11T11:41:19;7.80;99.90
15969;DHT22;8085;53.472;9.794;2023-02-11T11:44:03;7.80;99.90
15969;DHT22;8085;53.472;9.794;2023-02-11T11:46:42;7.80;99.90
15969;DHT22;8085;53.472;9.794;2023-02-11T11:49:20;7.80;99.90
15969;DHT22;8085;53.472;9.794;2023-02-11T11:51:55;7.80;99.90
15969;DHT22;8085;53.472;9.794;2023-02-11T11:54:26;7.90;99.90
15969;DHT22;8085;53.472;9.794;2023-02-11T11:56:57;7.80;99.90
15969;DHT22;8085;53.472;9.794;2023-02-11T11:59:26;7.90;99.90
15969;DHT22;8085;53.472;9.794;2023-02-11T12:02:12;7.90;99.90
15969;DHT22;8085;53.472;9.794;2023-02-11T12:04:57;8.00;99.90
15969;DHT22;8085;53.472;9.794;2023-02-11T12:07:39;8.00;99.90
15969;DHT22;8085;53.472;9.794;2023-02-11T12:13:39;8.10;99.90
15969;DHT22;8085;53.472;9.794;2023-02-11T12:16:18;8.00;99.90
15969;DHT22;8085;53.472;9.794;2023-02-11T12:19:08;8.10;99.90
15969;DHT22;8085;53.472;9.794;2023-02-11T12:21:45;8.00;99.90
15969;DHT22;8085;53.472;9.794;2023-02-11T12:24:27;8.00;99.90
15969;DHT22;8085;53.472;9.794;2023-02-11T12:27:03;8.10;99.90
15969;DHT22;8085;53.472;9.794;2023-02-11T12:29:39;8.10;99.90
15969;DHT22;8085;53.472;9.794;2023-02-11T12:32:20;8.10;99.90
15969;DHT22;8085;53.472;9.794;2023-02-11T12:35:18;8.10;99.90
15969;DHT22;8085;53.472;9.794;2023-02-11T12:38:14;8.10;99.90
15969;DHT22;8085;53.472;9.794;2023-02-11T12:40:45;8.10;99.90
15969;DHT22;8085;53.472;9.794;2023-02-11T12:43:22;8.10;99.90
15969;DHT22;8085;53.472;9.794;2023-02-11T12:45:57;8.10;99.90
15969;DHT22;8085;53.472;9.794;2023-02-11T12:48:38;8.10;99.90
15969;DHT22;8085;53.472;9.794;2023-02-11T12:51:16;8.10;99.90
15969;DHT22;8085;53.472;9.794;2023-02-11T12:54:00;8.10;99.90
15969;DHT22;8085;53.472;9.794;2023-02-11T12:56:36;8.00;99.90
15969;DHT22;8085;53.472;9.794;2023-02-11T12:59:10;8.00;99.90
15969;DHT22;8085;53.472;9.794;2023-02-11T13:01:41;8.00;99.90
15969;DHT22;8085;53.472;9.794;2023-02-11T13:04:14;8.00;99.90
15969;DHT22;8085;53.472;9.794;2023-02-11T13:06:45;8.00;99.90
15969;DHT22;8085;53.472;9.794;2023-02-11T13:09:17;8.10;99.90
15969;DHT22;8085;53.472;9.794;2023-02-11T13:11:49;8.00;99.90
15969;DHT22;8085;53.472;9.794;2023-02-11T13:14:24;8.10;99.90
15969;DHT22;8085;53.472;9.794;2023-02-11T13:16:53;8.10;99.90
15969;DHT22;8085;53.472;9.794;2023-02-11T13:19:25;8.10;99.90
15969;DHT22;8085;53.472;9.794;2023-02-11T13:22:04;8.10;99.90
15969;DHT22;8085;53.472;9.794;2023-02-11T13:24:41;8.20;99.90
15969;DHT22;8085;53.472;9.794;2023-02-11T13:27:19;8.20;99.90
15969;DHT22;8085;53.472;9.794;2023-02-11T13:35:49;8.30;99.90
15969;DHT22;8085;53.472;9.794;2023-02-11T13:38:37;8.30;99.90
15969;DHT22;8085;53.472;9.794;2023-02-11T13:41:09;8.30;99.90
15969;DHT22;8085;53.472;9.794;2023-02-11T13:43:41;8.30;99.90
15969;DHT22;8085;53.472;9.794;2023-02-11T13:46:10;8.40;99.90
15969;DHT22;8085;53.472;9.794;2023-02-11T13:48:45;8.30;99.90
15969;DHT22;8085;53.472;9.794;2023-02-11T13:51:18;8.40;99.90
15969;DHT22;8085;53.472;9.794;2023-02-11T13:53:58;8.40;99.90
15969;DHT22;8085;53.472;9.794;2023-02-11T13:56:29;8.40;99.90
15969;DHT22;8085;53.472;9.794;2023-02-11T13:58:56;8.40;99.90
15969;DHT22;8085;53.472;9.794;2023-02-11T14:01:39;8.50;99.90
15969;DHT22;8085;53.472;9.794;2023-02-11T14:04:21;8.50;99.90
15969;DHT22;8085;53.472;9.794;2023-02-11T14:07:25;8.50;99.90
15969;DHT22;8085;53.472;9.794;2023-02-11T14:13:21;8.60;99.90
15969;DHT22;8085;53.472;9.794;2023-02-11T14:15:48;8.50;99.90
15969;DHT22;8085;53.472;9.794;2023-02-11T14:18:59;8.40;99.90
15969;DHT22;8085;53.472;9.794;2023-02-11T14:21:37;8.40;99.90
15969;DHT22;8085;53.472;9.794;2023-02-11T14:24:43;8.40;99.90
15969;DHT22;8085;53.472;9.794;2023-02-11T14:27:17;8.40;99.90
15969;DHT22;8085;53.472;9.794;2023-02-11T14:29:58;8.40;99.90
15969;DHT22;8085;53.472;9.794;2023-02-11T14:32:37;8.40;99.90
15969;DHT22;8085;53.472;9.794;2023-02-11T14:35:12;8.40;99.90
15969;DHT22;8085;53.472;9.794;2023-02-11T14:37:49;8.40;99.90
15969;DHT22;8085;53.472;9.794;2023-02-11T14:40:24;8.40;99.90
15969;DHT22;8085;53.472;9.794;2023-02-11T14:42:53;8.50;99.90
15969;DHT22;8085;53.472;9.794;2023-02-11T14:45:24;8.50;99.90
15969;DHT22;8085;53.472;9.794;2023-02-11T14:47:56;8.50;99.90
15969;DHT22;8085;53.472;9.794;2023-02-11T14:50:27;8.50;99.90
15969;DHT22;8085;53.472;9.794;2023-02-11T14:53:00;8.50;99.90
15969;DHT22;8085;53.472;9.794;2023-02-11T14:55:31;8.50;99.90
15969;DHT22;8085;53.472;9.794;2023-02-11T14:58:13;8.50;99.90
15969;DHT22;8085;53.472;9.794;2023-02-11T15:00:48;8.50;99.90
15969;DHT22;8085;53.472;9.794;2023-02-11T15:03:30;8.50;99.90
15969;DHT22;8085;53.472;9.794;2023-02-11T15:05:59;8.40;99.90
15969;DHT22;8085;53.472;9.794;2023-02-11T15:08:29;8.40;99.90
15969;DHT22;8085;53.472;9.794;2023-02-11T15:10:57;8.30;99.90
15969;DHT22;8085;53.472;9.794;2023-02-11T15:13:28;8.30;99.90
15969;DHT22;8085;53.472;9.794;2023-02-11T15:16:03;8.30;99.90
15969;DHT22;8085;53.472;9.794;2023-02-11T15:18:35;8.30;99.90
15969;DHT22;8085;53.472;9.794;2023-02-11T15:21:03;8.30;99.90
15969;DHT22;8085;53.472;9.794;2023-02-11T15:23:31;8.30;99.90
15969;DHT22;8085;53.472;9.794;2023-02-11T15:25:58;8.30;99.90
15969;DHT22;8085;53.472;9.794;2023-02-11T15:28:31;8.30;99.90
15969;DHT22;8085;53.472;9.794;2023-02-11T15:30:59;8.20;99.90
15969;DHT22;8085;53.472;9.794;2023-02-11T15:33:27;8.20;99.90
15969;DHT22;8085;53.472;9.794;2023-02-11T15:35:57;8.20;99.90
15969;DHT22;8085;53.472;9.794;2023-02-11T15:38:24;8.10;99.90
15969;DHT22;8085;53.472;9.794;2023-02-11T15:40:54;8.10;99.90
15969;DHT22;8085;53.472;9.794;2023-02-11T15:43:21;8.00;99.90
15969;DHT22;8085;53.472;9.794;2023-02-11T15:45:58;8.00;99.90
15969;DHT22;8085;53.472;9.794;2023-02-11T15:48:33;8.00;99.90
15969;DHT22;8085;53.472;9.794;2023-02-11T15:51:04;8.00;99.90
15969;DHT22;8085;53.472;9.794;2023-02-11T15:53:37;8.00;99.90
15969;DHT22;8085;53.472;9.794;2023-02-11T15:56:12;8.00;99.90
15969;DHT22;8085;53.472;9.794;2023-02-11T15:58:41;8.00;99.90
15969;DHT22;8085;53.472;9.794;2023-02-11T16:01:09;8.00;99.90
15969;DHT22;8085;53.472;9.794;2023-02-11T16:03:37;8.00;99.90
15969;DHT22;8085;53.472;9.794;2023-02-11T16:06:20;8.00;99.90
15969;DHT22;8085;53.472;9.794;2023-02-11T16:09:03;8.00;99.90
15969;DHT22;8085;53.472;9.794;2023-02-11T16:11:33;8.00;99.90
15969;DHT22;8085;53.472;9.794;2023-02-11T16:14:01;8.00;99.90
15969;DHT22;8085;53.472;9.794;2023-02-11T16:16:46;8.00;99.90
15969;DHT22;8085;53.472;9.794;2023-02-11T16:19:17;8.00;99.90
15969;DHT22;8085;53.472;9.794;2023-02-11T16:21:45;8.00;99.90
15969;DHT22;8085;53.472;9.794;2023-02-11T16:24:17;8.10;99.90
15969;DHT22;8085;53.472;9.794;2023-02-11T16:26:49;8.00;99.90
15969;DHT22;8085;53.472;9.794;2023-02-11T16:29:18;8.10;99.90
15969;DHT22;8085;53.472;9.794;2023-02-11T16:31:48;8.10;99.90
15969;DHT22;8085;53.472;9.794;2023-02-11T16:34:17;8.00;99.90
15969;DHT22;8085;53.472;9.794;2023-02-11T16:36:45;8.00;99.90
15969;DHT22;8085;53.472;9.794;2023-02-11T16:39:12;8.00;99.90
15969;DHT22;8085;53.472;9.794;2023-02-11T16:41:39;8.00;99.90
15969;DHT22;8085;53.472;9.794;2023-02-11T16:44:07;8.10;99.90
15969;DHT22;8085;53.472;9.794;2023-02-11T16:46:35;8.00;99.90
15969;DHT22;8085;53.472;9.794;2023-02-11T16:49:08;8.00;99.90